Time;durP1;ratioP1;P1;durP2;ratioP2;P2;SDS_P1;SDS_P2;PMS_P1;PMS_P2;Temp;Humidity;BMP_temperature;BMP_pressure;BME280_temperature;BME280_humidity;BME280_pressure;Samples;Min_cycle;Max_cycle;Signal;HPM_P1;HPM_P2
2022/11/11 00:01:01;;;;;;;8.13;4.82;;;;;;;26.28;21.19;99530.13;6246198;23;20012;-80
2022/11/11 00:03:27;;;;;;;9.00;5.72;;;;;;;26.44;21.42;99531.16;6246432;22;20008;-80
2022/11/11 00:05:53;;;;;;;9.75;5.40;;;;;;;26.28;21.43;99536.53;6246130;22;20000;-80
2022/11/11 00:08:19;;;;;;;11.05;6.13;;;;;;;26.28;21.48;99542.16;6246297;23;20015;-80
2022/11/11 00:10:46;;;;;;;7.80;4.95;;;;;;;26.55;21.20;99543.16;6246185;23;20008;-80
2022/11/11 00:13:12;;;;;;;6.93;4.53;;;;;;;26.91;20.74;99551.31;6245873;23;20237;-80
2022/11/11 00:15:38;;;;;;;7.57;5.57;;;;;;;26.86;20.57;99543.31;6245654;23;19915;-80
2022/11/11 00:26:19;;;;;;;7.95;4.68;;;;;;;26.94;21.03;99561.72;6246052;23;20023;-80
2022/11/11 00:28:45;;;;;;;7.05;5.13;;;;;;;27.02;20.65;99555.63;6245707;23;20438;-81
2022/11/11 00:31:12;;;;;;;10.60;6.45;;;;;;;27.05;20.55;99551.16;6246061;23;20012;-80
2022/11/11 00:33:39;;;;;;;7.82;5.50;;;;;;;26.89;20.66;99559.34;6245785;22;20008;-80
2022/11/11 00:36:06;;;;;;;9.05;6.25;;;;;;;26.70;21.15;99558.69;6245886;23;20004;-80
2022/11/11 00:38:44;;;;;;;9.15;6.10;;;;;;;26.77;21.08;99562.72;6245621;22;20012;-80
2022/11/11 00:41:11;;;;;;;8.90;5.47;;;;;;;26.74;20.89;99562.31;6246011;23;20039;-80
2022/11/11 00:43:37;;;;;;;10.47;6.63;;;;;;;26.57;21.04;99563.25;6245220;22;20079;-81
2022/11/11 00:51:33;;;;;;;9.65;5.57;;;;;;;26.82;21.20;99560.22;6244659;23;20127;-80
2022/11/11 00:53:59;;;;;;;9.82;5.75;;;;;;;26.99;21.07;99561.28;6244123;23;19911;-80
2022/11/11 00:56:26;;;;;;;10.80;6.28;;;;;;;26.99;20.86;99555.63;6243943;23;20079;-80
2022/11/11 00:58:53;;;;;;;9.60;5.90;;;;;;;27.03;20.49;99559.22;6245608;22;20008;-81
2022/11/11 01:01:19;;;;;;;10.65;5.47;;;;;;;27.16;20.67;99552.66;6245961;22;19948;-81
2022/11/11 01:03:45;;;;;;;9.85;5.47;;;;;;;27.33;20.41;99551.63;6245707;23;19919;-81
2022/11/11 01:06:12;;;;;;;9.00;5.55;;;;;;;27.48;20.46;99549.47;6245092;23;19914;-80
2022/11/11 01:08:39;;;;;;;8.38;5.43;;;;;;;27.67;20.37;99543.16;6245746;22;20008;-81
2022/11/11 01:11:17;;;;;;;8.13;5.57;;;;;;;27.52;20.36;99547.38;6245924;22;20015;-81
2022/11/11 01:13:43;;;;;;;10.25;5.95;;;;;;;27.66;20.04;99541.56;6245942;22;20036;-81
2022/11/11 01:16:16;;;;;;;6.95;4.78;;;;;;;27.73;19.83;99538.63;6245464;22;19919;-80
2022/11/11 01:18:42;;;;;;;8.88;5.20;;;;;;;27.67;19.65;99540.34;6245601;22;20380;-80
2022/11/11 01:21:17;;;;;;;7.75;5.63;;;;;;;27.23;20.02;99540.47;6245245;23;20012;-80
2022/11/11 01:23:47;;;;;;;5.68;4.60;;;;;;;26.99;20.63;99541.53;6245868;22;20083;-80
2022/11/11 01:26:22;;;;;;;5.53;4.10;;;;;;;27.14;20.55;99540.19;6245179;22;20012;-81
2022/11/11 01:28:50;;;;;;;6.40;4.93;;;;;;;27.30;19.87;99537.56;6245798;22;20015;-81
2022/11/11 01:31:18;;;;;;;8.45;5.53;;;;;;;27.07;19.97;99534.63;6244204;23;20019;-80
2022/11/11 01:33:45;;;;;;;8.82;5.95;;;;;;;26.93;19.99;99535.59;6244042;23;20434;-80
2022/11/11 01:36:20;;;;;;;9.65;5.57;;;;;;;26.62;20.55;99540.28;6245567;22;20008;-80
2022/11/11 01:38:50;;;;;;;7.15;4.63;;;;;;;26.82;20.36;99537.69;6245696;22;20008;-80
2022/11/11 01:41:36;;;;;;;9.77;5.23;;;;;;;26.60;20.21;99536.28;6245077;22;20083;-80
2022/11/11 01:44:16;;;;;;;8.57;5.55;;;;;;;26.56;20.50;99549.56;6245251;22;20019;-80
2022/11/11 01:46:54;;;;;;;7.20;4.60;;;;;;;26.57;20.35;99543.53;6244236;22;20019;-80
2022/11/11 01:49:29;;;;;;;8.27;5.45;;;;;;;26.66;20.43;99549.50;6245569;23;20015;-80
2022/11/11 01:52:13;;;;;;;7.95;5.18;;;;;;;26.80;20.17;99544.97;6247717;22;20008;-80
2022/11/11 01:54:47;;;;;;;7.85;5.28;;;;;;;26.84;19.84;99546.53;6247327;23;20004;-80
2022/11/11 01:57:30;;;;;;;6.38;4.18;;;;;;;26.45;20.35;99549.69;6247058;22;20011;-80
2022/11/11 02:00:05;;;;;;;9.02;4.43;;;;;;;26.38;20.41;99549.72;6247608;22;20012;-80
2022/11/11 02:02:45;;;;;;;8.13;5.00;;;;;;;26.52;20.43;99554.44;6247401;22;20342;-80
2022/11/11 02:08:04;;;;;;;11.05;5.32;;;;;;;26.95;20.54;99554.88;6247279;23;20022;-80
2022/11/11 02:10:32;;;;;;;7.20;5.05;;;;;;;27.16;20.37;99555.47;6247116;22;20008;-80
2022/11/11 02:15:44;;;;;;;6.97;4.82;;;;;;;27.33;20.12;99554.44;6247255;23;20058;-81
2022/11/11 02:18:10;;;;;;;6.43;4.20;;;;;;;27.50;20.19;99555.47;6247034;23;20004;-81
2022/11/11 02:20:41;;;;;;;6.05;4.22;;;;;;;27.60;19.90;99553.75;6247048;23;20446;-80
2022/11/11 02:23:26;;;;;;;7.20;4.88;;;;;;;27.80;19.80;99552.66;6247392;22;20015;-80
2022/11/11 02:25:54;;;;;;;7.95;4.63;;;;;;;27.91;19.55;99547.66;6246974;22;19907;-80
2022/11/11 02:28:24;;;;;;;6.75;4.63;;;;;;;27.91;19.76;99561.00;6246917;22;20008;-81
2022/11/11 02:30:50;;;;;;;8.88;5.03;;;;;;;27.85;19.79;99559.84;6247067;22;20008;-80
2022/11/11 02:33:16;;;;;;;7.15;4.78;;;;;;;27.72;20.17;99561.66;6247369;23;19908;-80
2022/11/11 02:35:57;;;;;;;4.97;3.80;;;;;;;27.78;20.01;99563.56;6247118;23;20014;-80
2022/11/11 02:38:27;;;;;;;7.38;4.47;;;;;;;27.90;19.99;99557.38;6247180;22;20031;-80
2022/11/11 02:43:38;;;;;;;8.40;4.93;;;;;;;28.00;19.90;99569.75;6246846;23;20104;-80
2022/11/11 02:46:06;;;;;;;9.15;5.55;;;;;;;27.75;20.23;99572.09;6246956;23;20020;-80
2022/11/11 02:48:32;;;;;;;6.97;4.55;;;;;;;27.71;20.46;99577.78;6246669;22;20058;-80
2022/11/11 02:50:58;;;;;;;6.47;4.43;;;;;;;27.90;20.38;99568.66;6246787;23;20118;-80
2022/11/11 02:53:24;;;;;;;7.07;3.88;;;;;;;28.03;20.33;99583.00;6246543;23;20011;-80
2022/11/11 02:55:50;;;;;;;7.05;4.88;;;;;;;27.84;20.34;99583.69;6246452;23;20019;-80
2022/11/11 02:58:17;;;;;;;7.20;4.43;;;;;;;27.84;20.61;99586.50;6246972;23;19918;-80
2022/11/11 03:00:43;;;;;;;5.93;4.38;;;;;;;28.05;20.73;99584.19;6246693;22;20015;-80
2022/11/11 03:03:09;;;;;;;8.07;5.00;;;;;;;27.88;20.63;99590.88;6246615;23;20386;-80
2022/11/11 03:05:36;;;;;;;6.75;4.57;;;;;;;27.76;20.78;99585.78;6246556;23;20061;-80
2022/11/11 03:08:02;;;;;;;5.10;3.55;;;;;;;27.96;20.60;99588.72;6245067;23;20019;-80
2022/11/11 03:10:28;;;;;;;5.78;4.35;;;;;;;28.02;20.23;99585.06;6244829;23;20012;-80
2022/11/11 03:12:55;;;;;;;7.75;4.00;;;;;;;27.90;20.55;99587.59;6246725;22;20150;-80
2022/11/11 03:15:22;;;;;;;6.50;4.25;;;;;;;28.02;20.62;99587.88;6246582;23;20058;-80
2022/11/11 03:17:48;;;;;;;6.82;4.13;;;;;;;28.26;20.46;99574.63;6246732;22;20004;-80
2022/11/11 03:23:11;;;;;;;7.57;4.82;;;;;;;27.90;20.46;99582.78;6246345;23;20034;-80
2022/11/11 03:25:39;;;;;;;4.93;3.85;;;;;;;27.53;21.01;99582.06;6246757;22;20012;-80
2022/11/11 03:28:08;;;;;;;4.65;3.38;;;;;;;27.59;21.00;99578.34;6246539;22;20499;-80
2022/11/11 03:30:34;;;;;;;6.80;4.30;;;;;;;27.89;20.96;99569.88;6246550;22;20007;-80
2022/11/11 03:33:01;;;;;;;5.75;3.95;;;;;;;27.97;20.89;99577.03;6246648;22;20126;-80
2022/11/11 03:35:28;;;;;;;6.18;3.90;;;;;;;27.90;21.02;99577.13;6246991;22;20043;-81
2022/11/11 03:40:38;;;;;;;6.05;4.18;;;;;;;28.21;20.67;99569.44;6246319;23;20022;-81
2022/11/11 03:43:05;;;;;;;7.15;4.00;;;;;;;28.17;20.74;99582.03;6246281;23;20061;-81
2022/11/11 03:45:31;;;;;;;5.85;4.50;;;;;;;28.36;20.60;99581.31;6245939;22;20024;-81
2022/11/11 03:47:58;;;;;;;6.80;4.22;;;;;;;28.50;20.47;99573.41;6245115;23;20019;-81
2022/11/11 03:50:24;;;;;;;7.22;4.13;;;;;;;28.39;20.61;99583.28;6246277;23;20012;-81
2022/11/11 03:52:50;;;;;;;6.60;4.07;;;;;;;28.22;20.80;99578.69;6244269;23;20004;-80
2022/11/11 03:55:16;;;;;;;7.05;4.15;;;;;;;28.26;20.66;99573.81;6245860;23;20054;-80
2022/11/11 03:57:45;;;;;;;7.65;3.50;;;;;;;28.44;20.74;99569.47;6246090;23;20015;-81
2022/11/11 04:00:14;;;;;;;5.50;3.95;;;;;;;28.32;20.72;99564.44;6246301;22;20019;-80
2022/11/11 04:11:06;;;;;;;4.90;3.42;;;;;;;28.69;20.57;99571.91;6246239;23;20519;-80
2022/11/11 04:16:17;;;;;;;4.82;3.40;;;;;;;28.98;20.18;99575.03;6245818;23;20385;-81
2022/11/11 04:21:43;;;;;;;4.13;3.17;;;;;;;28.38;20.48;99565.53;6245845;23;20069;-80
2022/11/11 04:27:00;;;;;;;5.35;4.22;;;;;;;27.67;21.59;99559.28;6246053;23;20065;-80
2022/11/11 04:29:27;;;;;;;6.93;4.20;;;;;;;27.49;21.49;99555.91;6245464;22;20346;-81
2022/11/11 04:34:54;;;;;;;5.72;3.97;;;;;;;26.76;22.88;99558.28;6245629;23;20024;-80
2022/11/11 04:37:21;;;;;;;5.43;3.67;;;;;;;27.39;21.94;99557.63;6246228;22;20079;-80
2022/11/11 04:42:33;;;;;;;7.28;3.58;;;;;;;28.08;21.11;99567.66;6246025;23;20024;-80
2022/11/11 04:47:59;;;;;;;6.82;3.78;;;;;;;28.45;20.73;99556.94;6245712;23;20062;-80
2022/11/11 04:50:27;;;;;;;;;;;;;;;28.63;20.26;99554.66;6246722;22;20050;-80
2022/11/11 04:52:53;;;;;;;5.80;3.97;;;;;;;28.50;20.17;99558.47;6245756;22;20375;-80
2022/11/11 04:58:20;;;;;;;5.82;4.35;;;;;;;26.54;22.52;99560.47;6217176;22;20102;-80
2022/11/11 05:00:46;;;;;;;7.28;3.60;;;;;;;27.04;22.02;99560.81;6245564;22;20062;-80
2022/11/11 05:03:23;;;;;;;4.13;2.85;;;;;;;27.55;21.43;99566.31;6245589;23;20008;-80
2022/11/11 05:08:55;;;;;;;5.05;3.10;;;;;;;27.64;21.29;99579.88;6245944;23;20070;-80
2022/11/11 05:11:32;;;;;;;5.20;3.53;;;;;;;27.80;20.70;99577.25;6245833;22;20030;-81
2022/11/11 05:22:35;;;;;;;5.18;3.42;;;;;;;27.36;21.27;99612.84;6245647;23;20073;-80
2022/11/11 05:27:46;;;;;;;5.40;3.53;;;;;;;27.54;20.92;99598.56;6248885;23;20353;-80
2022/11/11 05:30:14;;;;;;;4.65;2.80;;;;;;;27.67;20.83;99610.09;6248926;23;20004;-80
2022/11/11 05:32:41;;;;;;;5.25;3.47;;;;;;;27.42;20.55;99610.41;6248718;22;20008;-80
2022/11/11 05:35:08;;;;;;;5.45;4.28;;;;;;;27.36;20.77;99610.03;6249244;22;20035;-80
2022/11/11 05:37:34;;;;;;;5.25;3.80;;;;;;;27.13;20.75;99609.88;6248734;22;20015;-81
2022/11/11 05:40:01;;;;;;;3.92;2.92;;;;;;;26.94;21.35;99624.53;6247511;23;20346;-80
2022/11/11 05:42:27;;;;;;;6.57;4.53;;;;;;;27.17;20.64;99619.09;6248985;23;19970;-80
2022/11/11 05:44:53;;;;;;;7.15;3.88;;;;;;;27.47;20.54;99620.44;6248534;23;20015;-80
2022/11/11 05:47:19;;;;;;;5.55;3.38;;;;;;;27.60;20.53;99625.09;6248318;23;19916;-81
2022/11/11 05:49:45;;;;;;;4.60;3.05;;;;;;;27.85;20.34;99624.78;6248939;23;20461;-81
2022/11/11 05:52:15;;;;;;;4.40;3.70;;;;;;;27.73;20.29;99626.13;6248821;23;20008;-80
2022/11/11 05:54:41;;;;;;;4.15;3.10;;;;;;;27.73;20.36;99628.97;6248759;22;20333;-80
2022/11/11 05:57:08;;;;;;;5.25;3.35;;;;;;;27.56;20.35;99632.00;6248893;22;20388;-80
2022/11/11 05:59:34;;;;;;;4.82;2.83;;;;;;;27.45;20.71;99634.94;6248550;22;20079;-81
2022/11/11 06:02:00;;;;;;;4.32;2.40;;;;;;;27.45;20.78;99640.56;6248984;22;20083;-81
2022/11/11 06:04:27;;;;;;;3.88;2.50;;;;;;;27.49;20.65;99654.66;6248588;23;19907;-80
2022/11/11 06:06:54;;;;;;;4.00;2.95;;;;;;;27.37;20.97;99658.81;6248741;22;20481;-81
2022/11/11 06:09:20;;;;;;;5.22;3.15;;;;;;;27.44;20.66;99657.94;6248573;23;20079;-81
2022/11/11 06:11:46;;;;;;;5.82;2.45;;;;;;;27.65;20.76;99652.88;6248647;23;20434;-81
2022/11/11 06:14:12;;;;;;;5.60;2.78;;;;;;;27.93;20.40;99658.16;6248883;23;19911;-81
2022/11/11 06:16:38;;;;;;;4.38;2.88;;;;;;;28.17;20.21;99656.25;6248689;23;19919;-81
2022/11/11 06:19:04;;;;;;;4.80;2.40;;;;;;;28.29;20.17;99658.50;6248588;23;20011;-81
2022/11/11 06:21:55;;;;;;;3.22;2.47;;;;;;;28.13;20.32;99654.69;6248738;23;20392;-80
2022/11/11 06:24:17;;;;;;;3.95;2.42;;;;;;;28.08;20.46;99660.84;6248836;23;20115;-81
2022/11/11 06:26:43;;;;;;;4.25;3.20;;;;;;;28.16;20.46;99654.66;6248404;23;20314;-80
2022/11/11 06:29:09;;;;;;;5.53;3.63;;;;;;;28.29;20.50;99649.22;6248260;23;19915;-81
2022/11/11 06:31:35;;;;;;;6.18;3.03;;;;;;;28.41;20.35;99649.44;6248446;23;20004;-81
2022/11/11 06:34:01;;;;;;;6.18;3.70;;;;;;;28.58;20.30;99650.41;6248648;23;19911;-81
2022/11/11 06:36:27;;;;;;;4.82;2.92;;;;;;;28.27;20.38;99646.81;6247416;23;20450;-80
2022/11/11 06:38:53;;;;;;;5.15;3.10;;;;;;;27.83;20.85;99647.00;6247112;23;20008;-81
2022/11/11 06:41:23;;;;;;;3.95;2.85;;;;;;;27.56;20.98;99652.56;6246945;23;19907;-81
2022/11/11 06:43:49;;;;;;;5.53;2.83;;;;;;;27.13;21.53;99657.00;6246811;22;20350;-81
2022/11/11 06:46:25;;;;;;;4.15;2.63;;;;;;;27.20;21.78;99662.56;6246745;23;20065;-81
2022/11/11 06:48:51;;;;;;;4.03;2.55;;;;;;;27.55;21.43;99653.78;6245357;23;20019;-81
2022/11/11 06:51:18;;;;;;;3.10;2.53;;;;;;;27.74;21.52;99655.97;6247316;23;19915;-81
2022/11/11 06:53:44;;;;;;;3.15;2.55;;;;;;;28.08;20.97;99648.28;6245709;23;20008;-81
2022/11/11 06:56:13;;;;;;;3.10;2.30;;;;;;;28.20;21.13;99634.81;6247063;23;20010;-81
2022/11/11 06:58:40;;;;;;;3.60;3.13;;;;;;;27.96;21.59;99639.56;6246831;22;20005;-81
2022/11/11 07:01:08;;;;;;;2.88;2.58;;;;;;;27.68;22.00;99645.56;6244758;22;20016;-81
2022/11/11 07:03:34;;;;;;;3.72;2.63;;;;;;;27.39;22.75;99656.38;6247073;22;20087;-82
2022/11/11 07:06:02;;;;;;;3.92;2.78;;;;;;;27.17;22.59;99654.94;6246779;22;20004;-81
2022/11/11 07:08:28;;;;;;;3.28;2.72;;;;;;;27.53;22.80;99650.56;6246864;22;20087;-81
2022/11/11 07:10:55;;;;;;;3.88;2.60;;;;;;;27.55;22.63;99652.97;6246935;23;20009;-81
2022/11/11 07:13:21;;;;;;;4.50;2.78;;;;;;;27.60;22.84;99653.31;6247362;22;20034;-81
2022/11/11 07:15:47;;;;;;;5.85;3.05;;;;;;;27.75;22.65;99651.13;6246515;23;20020;-81
2022/11/11 07:18:14;;;;;;;5.15;3.30;;;;;;;27.89;22.83;99659.44;6246677;22;19907;-81
2022/11/11 07:20:40;;;;;;;4.95;3.10;;;;;;;27.62;23.23;99653.69;6246074;23;20007;-82
2022/11/11 07:23:06;;;;;;;4.32;3.13;;;;;;;27.23;23.67;99658.94;6246747;22;19953;-82
2022/11/11 07:25:32;;;;;;;5.13;3.17;;;;;;;27.51;23.33;99647.38;6246835;23;20419;-81
2022/11/11 07:27:59;;;;;;;6.15;3.65;;;;;;;27.84;22.67;99646.56;6246539;23;20031;-82
2022/11/11 07:30:25;;;;;;;3.92;3.00;;;;;;;28.44;22.45;99633.66;6246303;23;20032;-82
2022/11/11 07:32:52;;;;;;;3.72;2.70;;;;;;;29.05;21.48;99639.97;6246517;23;19953;-81
2022/11/11 07:35:19;;;;;;;2.83;2.53;;;;;;;29.49;21.13;99645.22;6246724;22;20008;-82
2022/11/11 07:37:46;;;;;;;3.83;2.65;;;;;;;29.62;21.18;99639.72;6246334;22;20381;-82
2022/11/11 07:40:14;;;;;;;3.55;2.30;;;;;;;29.55;21.28;99639.84;6246360;22;20019;-81
2022/11/11 07:42:41;;;;;;;4.13;2.65;;;;;;;29.80;21.46;99634.53;6246301;22;20008;-82
2022/11/11 07:45:09;;;;;;;3.10;2.63;;;;;;;30.01;20.83;99637.69;6245939;22;20012;-82
2022/11/11 07:47:37;;;;;;;2.85;2.35;;;;;;;30.10;20.78;99639.97;6246751;22;20091;-82
2022/11/11 07:50:04;;;;;;;3.15;2.85;;;;;;;30.17;21.00;99634.13;6246577;22;20384;-81
2022/11/11 07:52:30;;;;;;;4.03;2.75;;;;;;;30.17;20.75;99639.00;6246289;22;20008;-82
2022/11/11 07:54:56;;;;;;;5.25;3.80;;;;;;;29.74;21.09;99642.69;6244630;23;19912;-81
2022/11/11 07:57:23;;;;;;;9.50;7.15;;;;;;;29.40;21.42;99645.81;6244574;23;20052;-81
2022/11/11 07:59:49;;;;;;;11.25;8.00;;;;;;;29.43;21.88;99644.94;6246470;22;20015;-81
2022/11/11 08:02:15;;;;;;;6.32;5.22;;;;;;;29.51;21.71;99636.31;6246249;23;20004;-81
2022/11/11 08:04:41;;;;;;;6.47;4.65;;;;;;;29.73;21.75;99638.28;6246084;23;19907;-81
2022/11/11 08:07:07;;;;;;;4.53;4.13;;;;;;;30.02;21.19;99624.34;6246209;23;20012;-81
2022/11/11 08:09:33;;;;;;;3.90;3.50;;;;;;;30.13;21.13;99612.78;6246092;23;20019;-81
2022/11/11 08:14:44;;;;;;;4.90;3.67;;;;;;;30.11;21.55;99604.72;6246492;23;20055;-81
2022/11/11 08:17:10;;;;;;;3.25;2.67;;;;;;;30.00;20.81;99610.63;6246617;23;20008;-81
2022/11/11 08:19:36;;;;;;;3.78;2.65;;;;;;;30.13;20.67;99605.06;6246124;23;20012;-81
2022/11/11 08:22:03;;;;;;;4.80;2.72;;;;;;;30.20;20.42;99604.13;6246030;23;20015;-81
2022/11/11 08:24:29;;;;;;;4.70;2.75;;;;;;;30.36;20.55;99607.00;6246400;22;20012;-81
2022/11/11 08:26:55;;;;;;;5.32;2.92;;;;;;;30.41;20.41;99598.00;6245402;22;20349;-81
2022/11/11 08:29:22;;;;;;;4.82;2.33;;;;;;;30.49;19.80;99610.75;6245988;23;20008;-82
2022/11/11 08:31:48;;;;;;;2.63;2.10;;;;;;;30.39;20.71;99612.59;6246310;23;20018;-81
2022/11/11 08:34:14;;;;;;;3.95;2.47;;;;;;;29.67;21.96;99614.53;6245811;23;20039;-82
2022/11/11 08:36:40;;;;;;;2.30;2.00;;;;;;;29.16;22.29;99621.56;6244543;23;20273;-81
2022/11/11 08:39:06;;;;;;;2.72;2.30;;;;;;;28.96;22.28;99617.91;6245858;23;20004;-81
2022/11/11 08:41:32;;;;;;;2.95;1.67;;;;;;;29.20;22.14;99618.69;6245452;22;20476;-81
2022/11/11 08:43:59;;;;;;;3.22;1.98;;;;;;;29.34;21.83;99622.06;6245483;23;20012;-82
2022/11/11 08:46:25;;;;;;;3.95;2.20;;;;;;;29.70;21.44;99619.34;6246430;22;19919;-82
2022/11/11 08:48:52;;;;;;;2.30;1.50;;;;;;;29.97;21.24;99620.00;6246034;23;20079;-81
2022/11/11 08:51:18;;;;;;;2.88;2.10;;;;;;;30.14;21.28;99628.53;6243943;22;20460;-81
2022/11/11 08:53:44;;;;;;;3.20;1.77;;;;;;;30.27;21.16;99637.97;6246983;23;19987;-81
2022/11/11 08:56:11;;;;;;;2.58;1.92;;;;;;;30.52;21.04;99630.50;6245626;23;20008;-81
2022/11/11 08:58:37;;;;;;;2.03;1.60;;;;;;;30.94;20.80;99636.41;6246139;22;20012;-81
2022/11/11 09:01:03;;;;;;;3.40;2.90;;;;;;;30.86;20.91;99640.59;6245559;23;20120;-82
2022/11/11 09:03:30;;;;;;;2.85;1.73;;;;;;;30.75;20.71;99641.69;6245616;23;20012;-82
2022/11/11 09:05:56;;;;;;;3.25;2.10;;;;;;;30.82;21.28;99642.75;6245413;23;20012;-82
2022/11/11 09:08:22;;;;;;;1.92;1.58;;;;;;;31.00;21.02;99640.28;6245721;22;20083;-81
2022/11/11 09:10:48;;;;;;;4.28;2.05;;;;;;;31.12;21.05;99639.56;6245332;23;19912;-82
2022/11/11 09:13:15;;;;;;;2.45;1.60;;;;;;;31.29;21.12;99636.28;6244523;23;20233;-82
2022/11/11 09:15:41;;;;;;;2.95;1.63;;;;;;;31.55;20.75;99640.06;6245543;23;19943;-82
2022/11/11 09:18:07;;;;;;;3.47;1.48;;;;;;;31.80;20.50;99639.34;6245398;23;19962;-82
2022/11/11 09:20:41;;;;;;;3.08;1.40;;;;;;;31.75;21.13;99615.13;6245804;22;19966;-82
2022/11/11 09:23:08;;;;;;;2.08;1.50;;;;;;;31.89;20.31;99613.91;6245716;23;19916;-82
2022/11/11 09:25:34;;;;;;;3.38;1.50;;;;;;;31.99;20.84;99610.78;6245222;23;19907;-82
2022/11/11 09:28:01;;;;;;;2.10;1.42;;;;;;;32.16;20.26;99602.16;6245549;23;19958;-81
2022/11/11 09:30:28;;;;;;;1.50;1.40;;;;;;;31.83;20.40;99602.31;6245630;22;19912;-81
2022/11/11 09:32:54;;;;;;;1.63;1.27;;;;;;;31.82;20.46;99599.91;6245830;22;20334;-81
2022/11/11 09:35:20;;;;;;;1.60;1.10;;;;;;;31.84;20.84;99609.56;6245418;23;19911;-81
2022/11/11 09:37:54;;;;;;;2.20;1.30;;;;;;;31.30;20.95;99623.66;6243945;23;19915;-81
2022/11/11 09:40:23;;;;;;;1.30;1.20;;;;;;;30.33;21.76;99637.03;6245251;22;19908;-81
2022/11/11 09:43:27;;;;;;;2.67;1.40;;;;;;;30.56;22.12;99639.72;6245607;22;19908;-81
2022/11/11 09:45:58;;;;;;;4.25;1.45;;;;;;;30.89;21.50;99636.94;6245592;22;19994;-81
2022/11/11 09:49:00;;;;;;;2.22;1.00;;;;;;;31.50;22.15;99634.91;6245660;23;19912;-81
2022/11/11 09:51:48;;;;;;;2.75;1.10;;;;;;;31.41;21.31;99624.16;6123325;23;19983;-81
2022/11/11 09:54:27;;;;;;;1.40;1.30;;;;;;;30.75;21.33;99632.38;6238608;22;19911;-81
2022/11/11 09:56:54;;;;;;;5.45;1.98;;;;;;;29.57;22.50;99640.25;6245395;22;20289;-81
2022/11/11 09:59:36;;;;;;;3.17;1.92;;;;;;;28.57;24.55;99635.47;6245186;22;19914;-81
2022/11/11 10:02:03;;;;;;;1.60;1.40;;;;;;;28.32;23.83;99628.59;6246036;22;19931;-81
2022/11/11 10:04:44;;;;;;;4.00;1.87;;;;;;;29.35;23.03;99626.50;6245427;22;19907;-81
2022/11/11 10:07:24;;;;;;;2.28;1.42;;;;;;;29.91;21.87;99620.94;6245707;22;19908;-81
2022/11/11 10:10:00;;;;;;;2.45;1.83;;;;;;;28.61;23.26;99638.28;6245041;22;20322;-81
2022/11/11 10:12:44;;;;;;;2.65;2.00;;;;;;;27.50;26.84;99645.75;6246932;22;19919;-81
2022/11/11 10:15:15;;;;;;;1.83;1.57;;;;;;;27.83;26.18;99641.34;6247279;22;19907;-83
2022/11/11 10:17:48;;;;;;;;;;;;;;;27.59;24.39;99642.44;6247677;22;20318;-81
2022/11/11 10:20:39;;;;;;;4.85;2.40;;;;;;;28.46;23.62;99639.69;6247426;22;19986;-81
2022/11/11 10:23:15;;;;;;;;;;;;;;;28.61;22.73;99635.47;6247506;22;19907;-81
2022/11/11 10:25:52;;;;;;;3.17;2.00;;;;;;;28.65;24.21;99630.53;6247430;22;19908;-81
2022/11/11 10:28:23;;;;;;;3.10;2.45;;;;;;;28.47;23.87;99627.94;6246735;22;19982;-81
2022/11/11 10:30:51;;;;;;;;;;;;;;;27.55;25.32;99621.94;6247660;22;19908;-81
2022/11/11 10:33:30;;;;;;;4.53;2.30;;;;;;;28.56;24.47;99619.75;6247693;22;20284;-81
2022/11/11 10:36:00;;;;;;;3.05;2.38;;;;;;;28.16;25.31;99626.41;6247298;22;19915;-81
2022/11/11 10:38:40;;;;;;;4.40;2.37;;;;;;;29.05;23.37;99615.31;6246932;22;19907;-81
2022/11/11 10:41:16;;;;;;;4.63;2.27;;;;;;;29.16;23.18;99620.75;6246972;23;19907;-81
2022/11/11 10:43:47;;;;;;;2.67;2.03;;;;;;;29.25;22.37;99619.00;6246719;23;20032;-82
2022/11/11 10:46:30;;;;;;;1.90;1.52;;;;;;;29.89;21.33;99618.56;6246718;23;19924;-81
2022/11/11 10:49:07;;;;;;;2.63;1.48;;;;;;;30.19;21.75;99622.34;6247439;22;19915;-81
2022/11/11 10:51:41;;;;;;;3.28;1.48;;;;;;;30.66;20.82;99615.19;6247046;22;19908;-81
2022/11/11 10:54:22;;;;;;;2.30;1.33;;;;;;;30.83;21.33;99616.75;6247221;22;19918;-81
2022/11/11 10:57:09;;;;;;;2.40;1.55;;;;;;;30.74;20.41;99619.44;6247068;22;20332;-81
2022/11/11 11:00:01;;;;;;;2.45;1.10;;;;;;;30.89;20.16;99606.53;6246554;22;19907;-81
2022/11/11 11:02:53;;;;;;;2.72;1.58;;;;;;;31.37;20.19;99608.47;6247325;22;19986;-81
2022/11/11 11:05:27;;;;;;;2.10;1.23;;;;;;;31.81;19.93;99615.38;6247124;22;20340;-82
2022/11/11 11:08:01;;;;;;;3.37;1.23;;;;;;;31.98;19.50;99611.22;6247053;22;19914;-81
2022/11/11 11:10:42;;;;;;;2.55;1.30;;;;;;;32.00;19.86;99603.84;6246704;22;20233;-82
2022/11/11 11:13:15;;;;;;;1.87;1.23;;;;;;;32.21;20.02;99587.38;6246896;22;19908;-82
2022/11/11 11:15:48;;;;;;;2.13;1.30;;;;;;;32.24;19.41;99589.31;6244930;23;20417;-82
2022/11/11 11:18:17;;;;;;;3.35;1.40;;;;;;;32.16;19.06;99574.50;6245087;23;20344;-82
2022/11/11 11:21:04;;;;;;;2.05;1.35;;;;;;;32.43;19.85;99577.72;6246244;22;19935;-81
2022/11/11 11:23:42;;;;;;;2.33;1.85;;;;;;;32.29;20.29;99572.47;6246765;22;19978;-81
2022/11/11 11:26:10;;;;;;;2.37;1.30;;;;;;;32.14;19.23;99570.56;6246595;22;19907;-81
2022/11/11 11:28:56;;;;;;;2.75;1.40;;;;;;;32.33;19.72;99572.34;6247071;22;19915;-82
2022/11/11 11:31:36;;;;;;;1.65;1.20;;;;;;;32.29;19.30;99574.53;6246590;22;19904;-81
2022/11/11 11:34:02;;;;;;;1.58;1.10;;;;;;;32.41;18.95;99573.72;6246763;22;19954;-82
2022/11/11 11:36:28;;;;;;;3.28;1.33;;;;;;;32.44;19.30;99572.81;6246790;22;19950;-81
2022/11/11 11:38:54;;;;;;;1.08;0.98;;;;;;;32.48;19.05;99570.66;6246807;22;19934;-82
2022/11/11 11:41:42;;;;;;;3.22;1.27;;;;;;;31.40;19.31;99573.50;6246239;23;19907;-81
2022/11/11 11:44:34;;;;;;;2.00;1.33;;;;;;;30.43;21.72;99576.47;6246549;22;20246;-82
2022/11/11 11:47:25;;;;;;;1.80;1.52;;;;;;;30.10;23.44;99560.63;6246154;22;19923;-82
2022/11/11 11:50:10;;;;;;;;;;;;;;;30.15;20.67;99562.94;6246905;23;19978;-82
2022/11/11 11:53:17;;;;;;;2.93;1.67;;;;;;;29.97;22.34;99551.19;6246573;22;19908;-82
2022/11/11 11:56:18;;;;;;;1.85;1.52;;;;;;;30.90;22.19;99551.38;6246896;22;20278;-82
2022/11/11 11:58:53;;;;;;;1.45;1.35;;;;;;;30.38;23.84;99571.31;6241179;23;20276;-82
2022/11/11 12:01:32;;;;;;;2.28;1.95;;;;;;;29.33;22.60;99572.38;6246199;23;20070;-82
2022/11/11 12:04:28;;;;;;;3.40;1.92;;;;;;;29.52;22.63;99572.81;6246167;22;19961;-81
2022/11/11 12:07:21;;;;;;;3.17;1.88;;;;;;;30.39;21.18;99566.44;6246262;22;20383;-82
2022/11/11 12:10:02;;;;;;;3.45;1.85;;;;;;;30.23;21.76;99574.88;6246078;23;19965;-82
2022/11/11 12:12:42;;;;;;;4.25;1.55;;;;;;;28.22;29.30;99587.16;6246138;22;20314;-82
2022/11/11 12:15:20;;;;;;;2.73;1.97;;;;;;;28.33;26.26;99576.53;6244523;23;20241;-82
2022/11/11 12:18:11;;;;;;;4.40;2.28;;;;;;;27.59;26.88;99572.69;6245890;23;19916;-82
2022/11/11 12:20:58;;;;;;;3.30;2.63;;;;;;;28.38;24.78;99576.06;6245802;23;19954;-81
2022/11/11 12:23:35;;;;;;;2.75;2.03;;;;;;;29.20;24.43;99581.91;6245685;23;20027;-82
2022/11/11 12:26:35;;;;;;;3.47;2.00;;;;;;;29.03;24.63;99571.72;6244096;22;19914;-82
2022/11/11 12:29:27;;;;;;;6.50;3.33;;;;;;;29.60;22.36;99563.72;6246065;22;19982;-82
2022/11/11 12:32:15;;;;;;;3.90;2.28;;;;;;;30.04;23.80;99563.19;6246346;23;20012;-82
2022/11/11 12:35:11;;;;;;;4.88;3.25;;;;;;;29.66;23.94;99549.88;6245337;23;19907;-81
2022/11/11 12:37:46;;;;;;;5.03;2.78;;;;;;;30.35;21.58;99546.69;6246060;23;19907;-81
2022/11/11 12:40:18;;;;;;;4.90;2.20;;;;;;;29.23;24.26;99552.75;6244474;23;19916;-81
2022/11/11 12:43:02;;;;;;;3.88;2.97;;;;;;;28.91;24.82;99547.69;6245738;23;20317;-82
2022/11/11 12:46:10;;;;;;;4.00;2.25;;;;;;;29.10;24.73;99544.06;6245568;22;20360;-81
2022/11/11 12:49:10;;;;;;;3.53;2.47;;;;;;;29.41;24.99;99556.84;6123508;23;19999;-81
2022/11/11 12:51:58;;;;;;;3.67;2.47;;;;;;;29.68;23.37;99555.88;6246232;23;19970;-81
2022/11/11 12:54:36;;;;;;;4.10;2.60;;;;;;;28.71;25.91;99563.78;6245658;22;19915;-82
2022/11/11 12:57:22;;;;;;;3.83;2.57;;;;;;;28.71;24.29;99563.78;6246093;23;19908;-81
2022/11/11 13:00:01;;;;;;;3.92;2.50;;;;;;;29.09;23.86;99556.66;6246036;22;19914;-81
2022/11/11 13:02:53;;;;;;;3.30;2.25;;;;;;;29.71;23.04;99555.03;6245840;22;19996;-83
2022/11/11 13:05:41;;;;;;;2.88;2.13;;;;;;;29.94;23.16;99552.88;6245734;22;19904;-83
2022/11/11 13:08:27;;;;;;;3.50;2.57;;;;;;;30.58;20.99;99557.84;6246220;22;20249;-83